ARG1778 SABE-SARI
Flight info
| Callsign | ARG1778 |
|---|---|
| Flight time | 1h 28m |
| Altitude | 39000 |
| Route | LANDA UN785 GEMSU UT667 NAIDE |
| Aircraft | B738/M-SDFGHILRVW/S |
Departure
| Time | 2026-04-26 14:48 |
|---|---|
| Airport | Aeroparque Jorge Newbery (SABE) |
Arrival
| Time | 2026-04-26 16:16 |
|---|---|
| Airport | Cataratas Del Iguazú International Airport (SARI) |
| Time | Latitude | Longitude | Altitude | Speed | Heading |
|---|---|---|---|---|---|
| 2026-04-26 14:16 | -34.55841 | -58.41194 | 26 ft | 0 kts | 38° |
| 2026-04-26 14:37 | -34.55852 | -58.41204 | 26 ft | 2 kts | 38° |
| 2026-04-26 14:37 | -34.55864 | -58.41214 | 26 ft | 2 kts | 7° |
| 2026-04-26 14:38 | -34.55879 | -58.41211 | 26 ft | 2 kts | 325° |
| 2026-04-26 14:38 | -34.55888 | -58.41197 | 26 ft | 2 kts | 303° |
| 2026-04-26 14:38 | -34.55893 | -58.41191 | 26 ft | 0 kts | 310° |
| 2026-04-26 14:42 | -34.55886 | -58.41199 | 26 ft | 4 kts | 310° |
| 2026-04-26 14:42 | -34.55854 | -58.41249 | 26 ft | 9 kts | 297° |
| 2026-04-26 14:42 | -34.55883 | -58.41309 | 26 ft | 9 kts | 205° |
| 2026-04-26 14:42 | -34.55941 | -58.41270 | 26 ft | 11 kts | 128° |
| 2026-04-26 14:43 | -34.55993 | -58.41189 | 26 ft | 13 kts | 126° |
| 2026-04-26 14:43 | -34.56051 | -58.41095 | 26 ft | 14 kts | 127° |
| 2026-04-26 14:43 | -34.56111 | -58.40999 | 26 ft | 14 kts | 127° |
| 2026-04-26 14:43 | -34.56161 | -58.40900 | 26 ft | 13 kts | 103° |
| 2026-04-26 14:44 | -34.56189 | -58.40792 | 26 ft | 14 kts | 123° |
| 2026-04-26 14:44 | -34.56247 | -58.40688 | 26 ft | 14 kts | 124° |
| 2026-04-26 14:44 | -34.56306 | -58.40586 | 26 ft | 14 kts | 131° |
| 2026-04-26 14:44 | -34.56377 | -58.40507 | 26 ft | 9 kts | 137° |
| 2026-04-26 14:45 | -34.56411 | -58.40470 | 26 ft | 0 kts | 137° |
| 2026-04-26 14:45 | -34.56411 | -58.40469 | 26 ft | 1 kts | 137° |
| 2026-04-26 14:45 | -34.56450 | -58.40427 | 26 ft | 10 kts | 138° |
| 2026-04-26 14:45 | -34.56525 | -58.40396 | 26 ft | 13 kts | 200° |
| 2026-04-26 14:46 | -34.56551 | -58.40448 | 26 ft | 6 kts | 292° |
| 2026-04-26 14:46 | -34.56543 | -58.40464 | 26 ft | 0 kts | 303° |
| 2026-04-26 14:47 | -34.56528 | -58.40492 | 26 ft | 18 kts | 303° |
| 2026-04-26 14:47 | -34.56319 | -58.40874 | 26 ft | 89 kts | 303° |
| 2026-04-26 14:47 | -34.55848 | -58.41714 | 27 ft | 147 kts | 304° |
| 2026-04-26 14:47 | -34.55239 | -58.42803 | 431 ft | 159 kts | 300° |
| 2026-04-26 14:48 | -34.54598 | -58.43872 | 1119 ft | 161 kts | 312° |
| 2026-04-26 14:48 | -34.53498 | -58.44487 | 1378 ft | 195 kts | 343° |
| 2026-04-26 14:48 | -34.52144 | -58.44584 | 2123 ft | 192 kts | 355° |
| 2026-04-26 14:48 | -34.50788 | -58.44590 | 2567 ft | 203 kts | 348° |
| 2026-04-26 14:49 | -34.49336 | -58.44731 | 3093 ft | 214 kts | 347° |
| 2026-04-26 14:49 | -34.47825 | -58.44897 | 3655 ft | 224 kts | 345° |
| 2026-04-26 14:49 | -34.46246 | -58.45103 | 4178 ft | 235 kts | 345° |
| 2026-04-26 14:49 | -34.44570 | -58.45313 | 4695 ft | 248 kts | 346° |
| 2026-04-26 14:50 | -34.42796 | -58.45523 | 5223 ft | 260 kts | 346° |
| 2026-04-26 14:50 | -34.40958 | -58.45733 | 5853 ft | 268 kts | 346° |
| 2026-04-26 14:50 | -34.39082 | -58.45946 | 6748 ft | 274 kts | 346° |
| 2026-04-26 14:50 | -34.37249 | -58.46144 | 7943 ft | 268 kts | 345° |
| 2026-04-26 14:51 | -34.35401 | -58.46347 | 8938 ft | 269 kts | 345° |
| 2026-04-26 14:51 | -34.33535 | -58.46555 | 9936 ft | 270 kts | 344° |
| 2026-04-26 14:51 | -34.31657 | -58.46770 | 10760 ft | 277 kts | 343° |
| 2026-04-26 14:51 | -34.29697 | -58.47001 | 11351 ft | 292 kts | 343° |
| 2026-04-26 14:52 | -34.27632 | -58.47247 | 11907 ft | 307 kts | 343° |
| 2026-04-26 14:52 | -34.25442 | -58.47501 | 12462 ft | 322 kts | 343° |
| 2026-04-26 14:52 | -34.23198 | -58.47754 | 13256 ft | 329 kts | 343° |
| 2026-04-26 14:52 | -34.20918 | -58.48004 | 14080 ft | 333 kts | 342° |
| 2026-04-26 14:53 | -34.18551 | -58.48268 | 14826 ft | 340 kts | 342° |
| 2026-04-26 14:53 | -34.16208 | -58.48530 | 15568 ft | 345 kts | 341° |
| 2026-04-26 14:53 | -34.13751 | -58.48812 | 16198 ft | 354 kts | 340° |
| 2026-04-26 14:53 | -34.11312 | -58.49089 | 17014 ft | 355 kts | 340° |
| 2026-04-26 14:54 | -34.08835 | -58.49367 | 17753 ft | 359 kts | 340° |
| 2026-04-26 14:54 | -34.06344 | -58.49650 | 18404 ft | 364 kts | 339° |
| 2026-04-26 14:54 | -34.03795 | -58.49940 | 19114 ft | 369 kts | 339° |
| 2026-04-26 14:54 | -34.01232 | -58.50230 | 19766 ft | 373 kts | 339° |
| 2026-04-26 14:55 | -33.98615 | -58.50532 | 20380 ft | 379 kts | 340° |
| 2026-04-26 14:55 | -33.95968 | -58.50829 | 21143 ft | 380 kts | 340° |
| 2026-04-26 14:55 | -33.93337 | -58.51126 | 21748 ft | 385 kts | 340° |
| 2026-04-26 14:55 | -33.90643 | -58.51429 | 22388 ft | 388 kts | 340° |
| 2026-04-26 14:56 | -33.87955 | -58.51729 | 23082 ft | 389 kts | 340° |
| 2026-04-26 14:56 | -33.85231 | -58.52037 | 23588 ft | 395 kts | 340° |
| 2026-04-26 14:56 | -33.82477 | -58.52350 | 24152 ft | 399 kts | 340° |
| 2026-04-26 14:56 | -33.79711 | -58.52659 | 24818 ft | 399 kts | 341° |
| 2026-04-26 14:57 | -33.76930 | -58.52970 | 25282 ft | 404 kts | 341° |
| 2026-04-26 14:57 | -33.74123 | -58.53285 | 25835 ft | 407 kts | 341° |
| 2026-04-26 14:57 | -33.71275 | -58.53605 | 26373 ft | 410 kts | 341° |
| 2026-04-26 14:57 | -33.68424 | -58.53925 | 26900 ft | 412 kts | 341° |
| 2026-04-26 14:58 | -33.65594 | -58.54242 | 27385 ft | 416 kts | 341° |
| 2026-04-26 14:58 | -33.62690 | -58.54567 | 27904 ft | 418 kts | 342° |
| 2026-04-26 14:58 | -33.59786 | -58.54894 | 28333 ft | 422 kts | 342° |
| 2026-04-26 14:58 | -33.56847 | -58.55221 | 28866 ft | 424 kts | 342° |
| 2026-04-26 14:59 | -33.53906 | -58.55548 | 29279 ft | 427 kts | 342° |
| 2026-04-26 14:59 | -33.50882 | -58.55889 | 29704 ft | 431 kts | 342° |
| 2026-04-26 14:59 | -33.47907 | -58.56221 | 30105 ft | 434 kts | 342° |
| 2026-04-26 14:59 | -33.45862 | -58.56449 | 30460 ft | 434 kts | 342° |
| 2026-04-26 15:00 | -33.41813 | -58.56895 | 31049 ft | 436 kts | 342° |
| 2026-04-26 15:00 | -33.38791 | -58.57225 | 31666 ft | 432 kts | 342° |
| 2026-04-26 15:00 | -33.35770 | -58.57549 | 32363 ft | 426 kts | 341° |
| 2026-04-26 15:00 | -33.32850 | -58.57859 | 33057 ft | 419 kts | 341° |
| 2026-04-26 15:01 | -33.29968 | -58.58165 | 33696 ft | 412 kts | 341° |
| 2026-04-26 15:01 | -33.27127 | -58.58471 | 34260 ft | 406 kts | 340° |
| 2026-04-26 15:01 | -33.24329 | -58.58779 | 34653 ft | 404 kts | 340° |
| 2026-04-26 15:01 | -33.21516 | -58.59098 | 34977 ft | 404 kts | 340° |
| 2026-04-26 15:02 | -33.18706 | -58.59419 | 35276 ft | 404 kts | 340° |
| 2026-04-26 15:02 | -33.15904 | -58.59743 | 35442 ft | 408 kts | 340° |
| 2026-04-26 15:02 | -33.13059 | -58.60073 | 35600 ft | 412 kts | 340° |
| 2026-04-26 15:02 | -33.10159 | -58.60403 | 35848 ft | 414 kts | 340° |
| 2026-04-26 15:03 | -33.07323 | -58.60717 | 36128 ft | 414 kts | 340° |
| 2026-04-26 15:03 | -33.04419 | -58.60974 | 36415 ft | 419 kts | 342° |
| 2026-04-26 15:03 | -33.01499 | -58.60974 | 36706 ft | 429 kts | 348° |
| 2026-04-26 15:03 | -32.98484 | -58.60592 | 36835 ft | 440 kts | 354° |
| 2026-04-26 15:04 | -32.95448 | -58.59825 | 37277 ft | 450 kts | 359° |
| 2026-04-26 15:04 | -32.92427 | -58.58801 | 37546 ft | 455 kts | 2° |
| 2026-04-26 15:04 | -32.89381 | -58.57643 | 37637 ft | 459 kts | 3° |
| 2026-04-26 15:04 | -32.86353 | -58.56453 | 37833 ft | 462 kts | 3° |
| 2026-04-26 15:05 | -32.83282 | -58.55244 | 38009 ft | 463 kts | 3° |
| 2026-04-26 15:05 | -32.81225 | -58.54439 | 38190 ft | 463 kts | 3° |
| 2026-04-26 15:05 | -32.77163 | -58.52869 | 38548 ft | 461 kts | 2° |
| 2026-04-26 15:05 | -32.74085 | -58.51698 | 38862 ft | 459 kts | 2° |
| 2026-04-26 15:06 | -32.71021 | -58.50548 | 38957 ft | 461 kts | 2° |
| 2026-04-26 15:06 | -32.64896 | -58.48285 | 38955 ft | 456 kts | 2° |
| 2026-04-26 15:07 | -32.55794 | -58.44965 | 38953 ft | 456 kts | 2° |
| 2026-04-26 15:07 | -32.49652 | -58.42747 | 38952 ft | 459 kts | 2° |
| 2026-04-26 15:08 | -32.43527 | -58.40525 | 38948 ft | 455 kts | 2° |
| 2026-04-26 15:08 | -32.37478 | -58.38333 | 38941 ft | 451 kts | 1° |
| 2026-04-26 15:09 | -32.31434 | -58.36155 | 38952 ft | 453 kts | 1° |
| 2026-04-26 15:09 | -32.25405 | -58.33989 | 38952 ft | 454 kts | 1° |
| 2026-04-26 15:10 | -32.20366 | -58.32172 | 38951 ft | 452 kts | 1° |
| 2026-04-26 15:10 | -32.13285 | -58.29636 | 38953 ft | 456 kts | 1° |
| 2026-04-26 15:11 | -32.07230 | -58.27463 | 38952 ft | 457 kts | 1° |
| 2026-04-26 15:11 | -32.01168 | -58.25276 | 38954 ft | 449 kts | 1° |
| 2026-04-26 15:12 | -31.95128 | -58.23113 | 38951 ft | 453 kts | 1° |
| 2026-04-26 15:12 | -31.89095 | -58.20963 | 38957 ft | 450 kts | 1° |
| 2026-04-26 15:13 | -31.83089 | -58.18816 | 38954 ft | 450 kts | 1° |
| 2026-04-26 15:13 | -31.77058 | -58.16672 | 38958 ft | 454 kts | 1° |
| 2026-04-26 15:14 | -31.70985 | -58.14516 | 38948 ft | 452 kts | 1° |
| 2026-04-26 15:14 | -31.64958 | -58.12360 | 38953 ft | 449 kts | 1° |
| 2026-04-26 15:15 | -31.58956 | -58.10228 | 38948 ft | 449 kts | 0° |
| 2026-04-26 15:15 | -31.52937 | -58.08097 | 38957 ft | 451 kts | 0° |
| 2026-04-26 15:16 | -31.46930 | -58.05976 | 38954 ft | 451 kts | 1° |
| 2026-04-26 15:16 | -31.40932 | -58.03854 | 38955 ft | 450 kts | 0° |
| 2026-04-26 15:17 | -31.35949 | -58.02089 | 38955 ft | 449 kts | 0° |
| 2026-04-26 15:17 | -31.28984 | -57.99630 | 38955 ft | 443 kts | 0° |
| 2026-04-26 15:18 | -31.23072 | -57.97547 | 38955 ft | 446 kts | 0° |
| 2026-04-26 15:18 | -31.17097 | -57.95461 | 38951 ft | 448 kts | 0° |
| 2026-04-26 15:19 | -31.11143 | -57.93362 | 38946 ft | 444 kts | 0° |
| 2026-04-26 15:19 | -31.05208 | -57.91278 | 38942 ft | 446 kts | 360° |
| 2026-04-26 15:20 | -30.99307 | -57.89201 | 38934 ft | 441 kts | 360° |
| 2026-04-26 15:20 | -30.93344 | -57.87125 | 38933 ft | 448 kts | 360° |
| 2026-04-26 15:21 | -30.87363 | -57.85047 | 38934 ft | 449 kts | 0° |
| 2026-04-26 15:21 | -30.81374 | -57.82941 | 38929 ft | 443 kts | 360° |
| 2026-04-26 15:22 | -30.75433 | -57.80872 | 38934 ft | 446 kts | 0° |
| 2026-04-26 15:22 | -30.69538 | -57.78816 | 38934 ft | 445 kts | 360° |
| 2026-04-26 15:23 | -30.63562 | -57.76735 | 38940 ft | 446 kts | 0° |
| 2026-04-26 15:23 | -30.57613 | -57.74647 | 38943 ft | 445 kts | 0° |
| 2026-04-26 15:24 | -30.51691 | -57.72572 | 38942 ft | 445 kts | 360° |
| 2026-04-26 15:24 | -30.45768 | -57.70500 | 38944 ft | 443 kts | 360° |
| 2026-04-26 15:25 | -30.40816 | -57.68778 | 38942 ft | 447 kts | 360° |
| 2026-04-26 15:25 | -30.33888 | -57.66365 | 38943 ft | 442 kts | 360° |
| 2026-04-26 15:26 | -30.27985 | -57.64089 | 38949 ft | 457 kts | 6° |
| 2026-04-26 15:26 | -30.25065 | -57.62497 | 38944 ft | 474 kts | 12° |
| 2026-04-26 15:26 | -30.22188 | -57.60567 | 38943 ft | 482 kts | 17° |
| 2026-04-26 15:27 | -30.16565 | -57.56218 | 38946 ft | 489 kts | 20° |
| 2026-04-26 15:27 | -30.11005 | -57.51655 | 38945 ft | 490 kts | 20° |
| 2026-04-26 15:28 | -30.05431 | -57.47095 | 38937 ft | 491 kts | 20° |
| 2026-04-26 15:28 | -29.99871 | -57.42601 | 38946 ft | 484 kts | 20° |
| 2026-04-26 15:29 | -29.94297 | -57.38153 | 38941 ft | 487 kts | 19° |
| 2026-04-26 15:30 | -29.83122 | -57.29315 | 38940 ft | 484 kts | 19° |
| 2026-04-26 15:30 | -29.77575 | -57.24934 | 38943 ft | 486 kts | 19° |
| 2026-04-26 15:31 | -29.69218 | -57.18355 | 38948 ft | 484 kts | 19° |
| 2026-04-26 15:32 | -29.61798 | -57.12530 | 38948 ft | 486 kts | 19° |
| 2026-04-26 15:32 | -29.55269 | -57.07412 | 38955 ft | 484 kts | 19° |
| 2026-04-26 15:33 | -29.49695 | -57.03041 | 38954 ft | 486 kts | 19° |
| 2026-04-26 15:33 | -29.44082 | -56.98654 | 38952 ft | 485 kts | 19° |
| 2026-04-26 15:34 | -29.38485 | -56.94282 | 38951 ft | 490 kts | 19° |
| 2026-04-26 15:34 | -29.32859 | -56.89895 | 38944 ft | 487 kts | 19° |
| 2026-04-26 15:35 | -29.27280 | -56.85542 | 38940 ft | 488 kts | 19° |
| 2026-04-26 15:35 | -29.21673 | -56.81176 | 38945 ft | 485 kts | 19° |
| 2026-04-26 15:36 | -29.16079 | -56.76829 | 38932 ft | 489 kts | 19° |
| 2026-04-26 15:36 | -29.10443 | -56.72466 | 38927 ft | 489 kts | 20° |
| 2026-04-26 15:37 | -29.04801 | -56.68087 | 38927 ft | 488 kts | 19° |
| 2026-04-26 15:37 | -28.99220 | -56.63756 | 38926 ft | 486 kts | 19° |
| 2026-04-26 15:38 | -28.93647 | -56.59458 | 38926 ft | 485 kts | 20° |
| 2026-04-26 15:38 | -28.88063 | -56.55149 | 38933 ft | 487 kts | 20° |
| 2026-04-26 15:39 | -28.82418 | -56.50801 | 38930 ft | 486 kts | 20° |
| 2026-04-26 15:39 | -28.77756 | -56.47212 | 38928 ft | 488 kts | 20° |
| 2026-04-26 15:40 | -28.71230 | -56.42187 | 38933 ft | 485 kts | 20° |
| 2026-04-26 15:40 | -28.66570 | -56.38606 | 38933 ft | 485 kts | 20° |
| 2026-04-26 15:41 | -28.60009 | -56.33583 | 38933 ft | 486 kts | 19° |
| 2026-04-26 15:41 | -28.54459 | -56.29317 | 38934 ft | 479 kts | 19° |
| 2026-04-26 15:42 | -28.48903 | -56.25072 | 38935 ft | 482 kts | 19° |
| 2026-04-26 15:42 | -28.43327 | -56.20829 | 38934 ft | 484 kts | 20° |
| 2026-04-26 15:43 | -28.37757 | -56.16575 | 38938 ft | 483 kts | 20° |
| 2026-04-26 15:44 | -28.29328 | -56.10162 | 38936 ft | 488 kts | 20° |
| 2026-04-26 15:44 | -28.20933 | -56.03767 | 38938 ft | 484 kts | 20° |
| 2026-04-26 15:45 | -28.12523 | -55.97390 | 38938 ft | 482 kts | 20° |
| 2026-04-26 15:46 | -28.04168 | -55.91058 | 38940 ft | 482 kts | 20° |
| 2026-04-26 15:46 | -27.99535 | -55.87556 | 38941 ft | 481 kts | 21° |
| 2026-04-26 15:47 | -27.90194 | -55.80516 | 38942 ft | 481 kts | 21° |
| 2026-04-26 15:48 | -27.84634 | -55.76331 | 38944 ft | 485 kts | 21° |
| 2026-04-26 15:48 | -27.79035 | -55.72109 | 38946 ft | 479 kts | 21° |
| 2026-04-26 15:49 | -27.73480 | -55.67935 | 38948 ft | 480 kts | 21° |
| 2026-04-26 15:49 | -27.67929 | -55.63766 | 38948 ft | 478 kts | 21° |
| 2026-04-26 15:50 | -27.62399 | -55.59611 | 38947 ft | 480 kts | 22° |
| 2026-04-26 15:50 | -27.56980 | -55.55097 | 38938 ft | 490 kts | 27° |
| 2026-04-26 15:50 | -27.54320 | -55.52667 | 38635 ft | 487 kts | 28° |
| 2026-04-26 15:51 | -27.51745 | -55.50251 | 38183 ft | 483 kts | 29° |
| 2026-04-26 15:51 | -27.49163 | -55.47810 | 37626 ft | 480 kts | 29° |
| 2026-04-26 15:51 | -27.46598 | -55.45393 | 37009 ft | 478 kts | 29° |
| 2026-04-26 15:51 | -27.44073 | -55.43028 | 36394 ft | 476 kts | 28° |
| 2026-04-26 15:52 | -27.41511 | -55.40640 | 35755 ft | 474 kts | 29° |
| 2026-04-26 15:52 | -27.38971 | -55.38285 | 35054 ft | 474 kts | 29° |
| 2026-04-26 15:52 | -27.36439 | -55.35949 | 34349 ft | 474 kts | 28° |
| 2026-04-26 15:52 | -27.34722 | -55.34370 | 33858 ft | 474 kts | 28° |
| 2026-04-26 15:53 | -27.31327 | -55.31257 | 33138 ft | 472 kts | 28° |
| 2026-04-26 15:53 | -27.28758 | -55.28899 | 32704 ft | 469 kts | 28° |
| 2026-04-26 15:53 | -27.26240 | -55.26591 | 32226 ft | 468 kts | 28° |
| 2026-04-26 15:53 | -27.23699 | -55.24268 | 31720 ft | 468 kts | 28° |
| 2026-04-26 15:54 | -27.21181 | -55.21968 | 31213 ft | 467 kts | 28° |
| 2026-04-26 15:54 | -27.18688 | -55.19694 | 30718 ft | 466 kts | 28° |
| 2026-04-26 15:54 | -27.16161 | -55.17385 | 30196 ft | 462 kts | 28° |
| 2026-04-26 15:54 | -27.13697 | -55.15134 | 29696 ft | 458 kts | 28° |
| 2026-04-26 15:55 | -27.11203 | -55.12855 | 29185 ft | 454 kts | 28° |
| 2026-04-26 15:55 | -27.08755 | -55.10620 | 28694 ft | 449 kts | 28° |
| 2026-04-26 15:55 | -27.06341 | -55.08418 | 28202 ft | 445 kts | 28° |
| 2026-04-26 15:55 | -27.03937 | -55.06229 | 27710 ft | 442 kts | 28° |
| 2026-04-26 15:56 | -27.01562 | -55.04070 | 27208 ft | 439 kts | 29° |
| 2026-04-26 15:56 | -26.99214 | -55.01937 | 26712 ft | 435 kts | 29° |
| 2026-04-26 15:56 | -26.96867 | -54.99807 | 26209 ft | 431 kts | 29° |
| 2026-04-26 15:56 | -26.94524 | -54.97679 | 25716 ft | 426 kts | 29° |
| 2026-04-26 15:57 | -26.92263 | -54.95627 | 25228 ft | 421 kts | 29° |
| 2026-04-26 15:57 | -26.89983 | -54.93559 | 24735 ft | 417 kts | 30° |
| 2026-04-26 15:57 | -26.87726 | -54.91514 | 24252 ft | 412 kts | 30° |
| 2026-04-26 15:57 | -26.86239 | -54.90168 | 23931 ft | 409 kts | 30° |
| 2026-04-26 15:58 | -26.83295 | -54.87501 | 23291 ft | 404 kts | 30° |
| 2026-04-26 15:58 | -26.81114 | -54.85528 | 22816 ft | 400 kts | 30° |
| 2026-04-26 15:58 | -26.78972 | -54.83591 | 22347 ft | 396 kts | 31° |
| 2026-04-26 15:58 | -26.76835 | -54.81658 | 21887 ft | 392 kts | 30° |
| 2026-04-26 15:59 | -26.74696 | -54.79727 | 21408 ft | 389 kts | 31° |
| 2026-04-26 15:59 | -26.72599 | -54.77835 | 20940 ft | 386 kts | 31° |
| 2026-04-26 15:59 | -26.70504 | -54.75944 | 20463 ft | 384 kts | 31° |
| 2026-04-26 15:59 | -26.68456 | -54.74096 | 19995 ft | 381 kts | 31° |
| 2026-04-26 16:00 | -26.66377 | -54.72222 | 19516 ft | 378 kts | 32° |
| 2026-04-26 16:00 | -26.64350 | -54.70397 | 19047 ft | 375 kts | 32° |
| 2026-04-26 16:00 | -26.62320 | -54.68571 | 18574 ft | 373 kts | 32° |
| 2026-04-26 16:00 | -26.60289 | -54.66743 | 18098 ft | 370 kts | 32° |
| 2026-04-26 16:01 | -26.58298 | -54.64949 | 17632 ft | 368 kts | 33° |
| 2026-04-26 16:01 | -26.56303 | -54.63155 | 17158 ft | 365 kts | 33° |
| 2026-04-26 16:01 | -26.54320 | -54.61371 | 16689 ft | 362 kts | 33° |
| 2026-04-26 16:01 | -26.52358 | -54.59607 | 16221 ft | 360 kts | 33° |
| 2026-04-26 16:02 | -26.50418 | -54.57867 | 15766 ft | 357 kts | 33° |
| 2026-04-26 16:02 | -26.48485 | -54.56136 | 15302 ft | 354 kts | 33° |
| 2026-04-26 16:02 | -26.46560 | -54.54414 | 14848 ft | 352 kts | 33° |
| 2026-04-26 16:02 | -26.45295 | -54.53281 | 14544 ft | 350 kts | 33° |
| 2026-04-26 16:03 | -26.42782 | -54.51032 | 13943 ft | 347 kts | 33° |
| 2026-04-26 16:03 | -26.40911 | -54.49366 | 13499 ft | 344 kts | 33° |
| 2026-04-26 16:03 | -26.39028 | -54.47691 | 13053 ft | 343 kts | 33° |
| 2026-04-26 16:03 | -26.37174 | -54.46040 | 12607 ft | 341 kts | 33° |
| 2026-04-26 16:04 | -26.35307 | -54.44373 | 12158 ft | 340 kts | 33° |
| 2026-04-26 16:04 | -26.33470 | -54.42734 | 11710 ft | 338 kts | 33° |
| 2026-04-26 16:04 | -26.31620 | -54.41081 | 11266 ft | 336 kts | 33° |
| 2026-04-26 16:04 | -26.29803 | -54.39456 | 10824 ft | 335 kts | 34° |
| 2026-04-26 16:05 | -26.27997 | -54.37839 | 10394 ft | 333 kts | 34° |
| 2026-04-26 16:05 | -26.26190 | -54.36277 | 10153 ft | 322 kts | 29° |
| 2026-04-26 16:05 | -26.24305 | -54.35107 | 10044 ft | 301 kts | 14° |
| 2026-04-26 16:05 | -26.22305 | -54.34658 | 9776 ft | 285 kts | 356° |
| 2026-04-26 16:06 | -26.20338 | -54.34632 | 9364 ft | 283 kts | 352° |
| 2026-04-26 16:06 | -26.18348 | -54.34622 | 8979 ft | 282 kts | 355° |
| 2026-04-26 16:06 | -26.16382 | -54.34554 | 8610 ft | 281 kts | 356° |
| 2026-04-26 16:06 | -26.14431 | -54.34434 | 8241 ft | 279 kts | 358° |
| 2026-04-26 16:07 | -26.12499 | -54.34293 | 7877 ft | 278 kts | 358° |
| 2026-04-26 16:07 | -26.10569 | -54.34153 | 7519 ft | 277 kts | 359° |
| 2026-04-26 16:07 | -26.08648 | -54.34010 | 7193 ft | 275 kts | 358° |
| 2026-04-26 16:07 | -26.06739 | -54.33874 | 6941 ft | 269 kts | 357° |
| 2026-04-26 16:08 | -26.04886 | -54.33751 | 6701 ft | 265 kts | 358° |
| 2026-04-26 16:08 | -26.03669 | -54.33667 | 6541 ft | 261 kts | 358° |
| 2026-04-26 16:08 | -26.01268 | -54.33508 | 6202 ft | 254 kts | 358° |
| 2026-04-26 16:08 | -25.99526 | -54.33387 | 5964 ft | 248 kts | 357° |
| 2026-04-26 16:09 | -25.97814 | -54.33263 | 5711 ft | 243 kts | 358° |
| 2026-04-26 16:09 | -25.96118 | -54.33153 | 5467 ft | 240 kts | 358° |
| 2026-04-26 16:09 | -25.94472 | -54.33033 | 5261 ft | 234 kts | 359° |
| 2026-04-26 16:09 | -25.92854 | -54.32910 | 5062 ft | 229 kts | 359° |
| 2026-04-26 16:10 | -25.91305 | -54.32796 | 4883 ft | 222 kts | 359° |
| 2026-04-26 16:10 | -25.89779 | -54.32684 | 4686 ft | 216 kts | 359° |
| 2026-04-26 16:10 | -25.88302 | -54.32370 | 4531 ft | 213 kts | 15° |
| 2026-04-26 16:10 | -25.86960 | -54.31690 | 4405 ft | 207 kts | 22° |
| 2026-04-26 16:11 | -25.85709 | -54.30977 | 4282 ft | 201 kts | 21° |
| 2026-04-26 16:11 | -25.84439 | -54.30302 | 4158 ft | 199 kts | 20° |
| 2026-04-26 16:11 | -25.83164 | -54.29704 | 4015 ft | 197 kts | 12° |
| 2026-04-26 16:11 | -25.81847 | -54.29591 | 3865 ft | 188 kts | 338° |
| 2026-04-26 16:12 | -25.80803 | -54.30415 | 3725 ft | 184 kts | 302° |
| 2026-04-26 16:12 | -25.80257 | -54.31657 | 3591 ft | 177 kts | 289° |
| 2026-04-26 16:12 | -25.79291 | -54.34074 | 3183 ft | 169 kts | 294° |
| 2026-04-26 16:13 | -25.78786 | -54.35255 | 2958 ft | 166 kts | 293° |
| 2026-04-26 16:13 | -25.78314 | -54.36398 | 2752 ft | 157 kts | 293° |
| 2026-04-26 16:13 | -25.77872 | -54.37453 | 2562 ft | 143 kts | 293° |
| 2026-04-26 16:13 | -25.77452 | -54.38458 | 2341 ft | 142 kts | 293° |
| 2026-04-26 16:14 | -25.77043 | -54.39438 | 2166 ft | 142 kts | 293° |
| 2026-04-26 16:14 | -25.76623 | -54.40439 | 1984 ft | 143 kts | 292° |
| 2026-04-26 16:14 | -25.75781 | -54.42450 | 1603 ft | 145 kts | 293° |
| 2026-04-26 16:15 | -25.75359 | -54.43458 | 1414 ft | 144 kts | 293° |
| 2026-04-26 16:15 | -25.74932 | -54.44458 | 1211 ft | 144 kts | 293° |
| 2026-04-26 16:15 | -25.74514 | -54.45457 | 1024 ft | 144 kts | 293° |
| 2026-04-26 16:16 | -25.73822 | -54.47116 | 919 ft | 70 kts | 294° |
| 2026-04-26 16:16 | -25.73661 | -54.47500 | 919 ft | 50 kts | 293° |
| 2026-04-26 16:16 | -25.73530 | -54.47818 | 919 ft | 37 kts | 295° |
| 2026-04-26 16:16 | -25.73426 | -54.48007 | 919 ft | 23 kts | 315° |
| 2026-04-26 16:17 | -25.73317 | -54.48100 | 919 ft | 10 kts | 341° |
| 2026-04-26 16:17 | -25.73244 | -54.48081 | 919 ft | 12 kts | 50° |
| 2026-04-26 16:17 | -25.73230 | -54.47992 | 919 ft | 11 kts | 85° |
| 2026-04-26 16:17 | -25.73223 | -54.47903 | 919 ft | 11 kts | 85° |
| 2026-04-26 16:18 | -25.73222 | -54.47814 | 919 ft | 11 kts | 107° |
| 2026-04-26 16:18 | -25.73254 | -54.47699 | 919 ft | 4 kts | 34° |
| 2026-04-26 16:19 | -25.73220 | -54.47685 | 919 ft | 0 kts | 24° |